sensor_id;sensor_type;location;lat;lon;timestamp;pressure;altitude;pressure_sealevel;temperature;humidity
61870;BME280;47810;42.264;23.826;2023-06-14T00:00:39;93527.81;;;15.40;96.27
61870;BME280;47810;42.264;23.826;2023-06-14T00:03:11;93525.59;;;15.45;96.63
61870;BME280;47810;42.264;23.826;2023-06-14T00:05:38;93526.44;;;15.55;96.21
61870;BME280;47810;42.264;23.826;2023-06-14T00:08:08;93532.19;;;15.60;95.93
61870;BME280;47810;42.264;23.826;2023-06-14T00:10:35;93528.75;;;15.70;95.61
61870;BME280;47810;42.264;23.826;2023-06-14T00:13:01;93526.47;;;15.84;93.98
61870;BME280;47810;42.264;23.826;2023-06-14T00:15:27;93528.44;;;15.73;94.13
61870;BME280;47810;42.264;23.826;2023-06-14T00:17:53;93523.19;;;15.42;95.16
61870;BME280;47810;42.264;23.826;2023-06-14T00:20:20;93526.41;;;15.36;95.53
61870;BME280;47810;42.264;23.826;2023-06-14T00:22:46;93520.53;;;15.42;95.64
61870;BME280;47810;42.264;23.826;2023-06-14T00:25:11;93520.81;;;15.49;95.70
61870;BME280;47810;42.264;23.826;2023-06-14T00:27:37;93520.00;;;15.58;95.43
61870;BME280;47810;42.264;23.826;2023-06-14T00:30:02;93512.56;;;15.61;95.42
61870;BME280;47810;42.264;23.826;2023-06-14T00:32:28;93512.06;;;15.77;94.54
61870;BME280;47810;42.264;23.826;2023-06-14T00:34:54;93504.91;;;15.88;93.50
61870;BME280;47810;42.264;23.826;2023-06-14T00:37:19;93503.25;;;15.77;93.35
61870;BME280;47810;42.264;23.826;2023-06-14T00:39:45;93503.22;;;15.87;93.14
61870;BME280;47810;42.264;23.826;2023-06-14T00:42:10;93507.44;;;15.70;93.90
61870;BME280;47810;42.264;23.826;2023-06-14T00:44:36;93499.56;;;15.58;95.39
61870;BME280;47810;42.264;23.826;2023-06-14T00:47:01;93505.16;;;15.55;95.08
61870;BME280;47810;42.264;23.826;2023-06-14T00:49:27;93499.25;;;15.42;95.88
61870;BME280;47810;42.264;23.826;2023-06-14T00:51:54;93501.19;;;15.40;96.80
61870;BME280;47810;42.264;23.826;2023-06-14T00:54:20;93500.94;;;15.53;96.50
61870;BME280;47810;42.264;23.826;2023-06-14T00:56:46;93500.94;;;15.63;96.21
61870;BME280;47810;42.264;23.826;2023-06-14T00:59:11;93497.16;;;15.55;96.34
61870;BME280;47810;42.264;23.826;2023-06-14T01:01:37;93496.72;;;15.50;95.95
61870;BME280;47810;42.264;23.826;2023-06-14T01:04:04;93496.69;;;15.31;96.94
61870;BME280;47810;42.264;23.826;2023-06-14T01:11:54;93499.63;;;15.18;98.08
61870;BME280;47810;42.264;23.826;2023-06-14T01:14:23;93498.94;;;15.26;97.15
61870;BME280;47810;42.264;23.826;2023-06-14T01:16:50;93496.44;;;15.34;97.02
61870;BME280;47810;42.264;23.826;2023-06-14T01:19:18;93490.84;;;15.47;96.55
61870;BME280;47810;42.264;23.826;2023-06-14T01:21:44;93492.25;;;15.41;96.03
61870;BME280;47810;42.264;23.826;2023-06-14T01:24:09;93492.25;;;15.41;95.91
61870;BME280;47810;42.264;23.826;2023-06-14T01:26:36;93488.06;;;15.48;95.90
61870;BME280;47810;42.264;23.826;2023-06-14T01:29:03;93483.56;;;15.58;95.43
61870;BME280;47810;42.264;23.826;2023-06-14T01:31:29;93492.13;;;15.62;95.44
61870;BME280;47810;42.264;23.826;2023-06-14T01:33:55;93494.81;;;15.72;94.05
61870;BME280;47810;42.264;23.826;2023-06-14T01:36:20;93495.63;;;15.63;94.47
61870;BME280;47810;42.264;23.826;2023-06-14T01:38:48;93492.28;;;15.60;94.61
61870;BME280;47810;42.264;23.826;2023-06-14T01:41:15;93492.00;;;15.64;94.72
61870;BME280;47810;42.264;23.826;2023-06-14T01:43:40;93489.66;;;15.80;94.28
61870;BME280;47810;42.264;23.826;2023-06-14T01:46:06;93492.84;;;15.93;93.27
61870;BME280;47810;42.264;23.826;2023-06-14T01:48:33;93486.97;;;15.99;92.14
61870;BME280;47810;42.264;23.826;2023-06-14T01:50:59;93488.94;;;15.78;93.22
61870;BME280;47810;42.264;23.826;2023-06-14T01:53:25;93492.88;;;15.74;93.65
61870;BME280;47810;42.264;23.826;2023-06-14T01:55:50;93484.44;;;15.69;94.60
61870;BME280;47810;42.264;23.826;2023-06-14T01:58:19;93492.88;;;15.74;94.47
61870;BME280;47810;42.264;23.826;2023-06-14T02:00:44;93489.09;;;15.76;94.54
61870;BME280;47810;42.264;23.826;2023-06-14T02:03:10;93493.97;;;15.81;94.51
61870;BME280;47810;42.264;23.826;2023-06-14T02:05:37;93495.66;;;15.82;94.36
61870;BME280;47810;42.264;23.826;2023-06-14T02:08:04;93495.81;;;15.80;94.73
61870;BME280;47810;42.264;23.826;2023-06-14T02:10:29;93501.53;;;15.95;93.84
61870;BME280;47810;42.264;23.826;2023-06-14T02:12:55;93500.69;;;15.95;93.64
61870;BME280;47810;42.264;23.826;2023-06-14T02:15:20;93492.56;;;16.06;92.96
61870;BME280;47810;42.264;23.826;2023-06-14T02:17:47;93502.94;;;15.99;92.63
61870;BME280;47810;42.264;23.826;2023-06-14T02:20:13;93508.53;;;16.06;92.72
61870;BME280;47810;42.264;23.826;2023-06-14T02:22:38;93510.09;;;16.09;92.71
61870;BME280;47810;42.264;23.826;2023-06-14T02:25:04;93508.25;;;16.19;92.96
61870;BME280;47810;42.264;23.826;2023-06-14T02:27:30;93496.75;;;16.18;92.91
61870;BME280;47810;42.264;23.826;2023-06-14T02:29:56;93507.00;;;16.03;93.50
61870;BME280;47810;42.264;23.826;2023-06-14T02:32:21;93507.84;;;15.75;93.67
61870;BME280;47810;42.264;23.826;2023-06-14T02:34:47;93500.56;;;15.77;94.01
61870;BME280;47810;42.264;23.826;2023-06-14T02:37:15;93505.34;;;15.83;93.84
61870;BME280;47810;42.264;23.826;2023-06-14T02:39:41;93504.03;;;15.48;93.35
61870;BME280;47810;42.264;23.826;2023-06-14T02:42:06;93503.03;;;15.49;92.38
61870;BME280;47810;42.264;23.826;2023-06-14T02:44:32;93510.88;;;15.41;92.39
61870;BME280;47810;42.264;23.826;2023-06-14T02:46:57;93508.22;;;15.31;91.48
61870;BME280;47810;42.264;23.826;2023-06-14T02:49:26;93511.16;;;15.48;90.95
61870;BME280;47810;42.264;23.826;2023-06-14T02:51:51;93504.84;;;15.39;90.24
61870;BME280;47810;42.264;23.826;2023-06-14T02:54:17;93511.28;;;15.36;90.39
61870;BME280;47810;42.264;23.826;2023-06-14T02:56:43;93514.22;;;15.33;90.31
61870;BME280;47810;42.264;23.826;2023-06-14T02:59:09;93515.22;;;15.42;90.97
61870;BME280;47810;42.264;23.826;2023-06-14T03:01:34;93512.38;;;15.34;90.11
61870;BME280;47810;42.264;23.826;2023-06-14T03:04:03;93516.78;;;15.54;89.15
61870;BME280;47810;42.264;23.826;2023-06-14T03:06:29;93519.44;;;15.54;88.23
61870;BME280;47810;42.264;23.826;2023-06-14T03:08:58;93520.34;;;15.24;88.11
61870;BME280;47810;42.264;23.826;2023-06-14T03:11:28;93524.81;;;15.14;91.10
61870;BME280;47810;42.264;23.826;2023-06-14T03:13:53;93526.66;;;15.23;92.28
61870;BME280;47810;42.264;23.826;2023-06-14T03:16:20;93530.88;;;15.26;92.59
61870;BME280;47810;42.264;23.826;2023-06-14T03:18:51;93525.81;;;15.23;93.06
61870;BME280;47810;42.264;23.826;2023-06-14T03:21:17;93521.34;;;15.23;93.74
61870;BME280;47810;42.264;23.826;2023-06-14T03:23:43;93527.81;;;15.40;93.24
61870;BME280;47810;42.264;23.826;2023-06-14T03:26:09;93534.81;;;15.41;92.93
61870;BME280;47810;42.264;23.826;2023-06-14T03:28:34;93534.56;;;15.44;92.96
61870;BME280;47810;42.264;23.826;2023-06-14T03:31:00;93536.00;;;15.68;90.08
61870;BME280;47810;42.264;23.826;2023-06-14T03:33:26;93535.81;;;15.50;88.76
61870;BME280;47810;42.264;23.826;2023-06-14T03:35:52;93535.88;;;15.19;89.84
61870;BME280;47810;42.264;23.826;2023-06-14T03:38:18;93535.31;;;15.16;89.45
61870;BME280;47810;42.264;23.826;2023-06-14T03:40:43;93540.22;;;15.20;88.86
61870;BME280;47810;42.264;23.826;2023-06-14T03:43:09;93544.31;;;14.84;89.56
61870;BME280;47810;42.264;23.826;2023-06-14T03:45:35;93548.66;;;14.95;90.26
61870;BME280;47810;42.264;23.826;2023-06-14T03:48:01;93541.38;;;14.87;90.42
61870;BME280;47810;42.264;23.826;2023-06-14T03:50:26;93540.06;;;15.12;89.17
61870;BME280;47810;42.264;23.826;2023-06-14T03:52:52;93537.53;;;15.10;89.14
61870;BME280;47810;42.264;23.826;2023-06-14T03:55:18;93542.25;;;14.97;89.99
61870;BME280;47810;42.264;23.826;2023-06-14T03:57:44;93543.84;;;14.79;90.31
61870;BME280;47810;42.264;23.826;2023-06-14T04:00:09;93546.47;;;15.00;89.18
61870;BME280;47810;42.264;23.826;2023-06-14T04:02:36;93547.22;;;14.81;90.41
61870;BME280;47810;42.264;23.826;2023-06-14T04:05:02;93544.59;;;14.60;90.88
61870;BME280;47810;42.264;23.826;2023-06-14T04:07:27;93546.97;;;14.84;90.65
61870;BME280;47810;42.264;23.826;2023-06-14T04:09:54;93551.91;;;14.67;91.41
61870;BME280;47810;42.264;23.826;2023-06-14T04:12:19;93551.13;;;14.77;91.22
61870;BME280;47810;42.264;23.826;2023-06-14T04:14:45;93550.75;;;14.91;91.91
61870;BME280;47810;42.264;23.826;2023-06-14T04:17:11;93549.78;;;14.92;91.53
61870;BME280;47810;42.264;23.826;2023-06-14T04:19:36;93551.56;;;15.12;90.63
61870;BME280;47810;42.264;23.826;2023-06-14T04:22:03;93549.03;;;15.21;90.48
61870;BME280;47810;42.264;23.826;2023-06-14T04:24:29;93549.00;;;15.11;90.94
61870;BME280;47810;42.264;23.826;2023-06-14T04:27:00;93557.13;;;15.09;92.07
61870;BME280;47810;42.264;23.826;2023-06-14T04:29:26;93565.81;;;15.11;92.46
61870;BME280;47810;42.264;23.826;2023-06-14T04:31:53;93559.41;;;15.24;92.69
61870;BME280;47810;42.264;23.826;2023-06-14T04:34:19;93569.50;;;15.30;92.95
61870;BME280;47810;42.264;23.826;2023-06-14T04:36:47;93567.72;;;15.40;92.40
61870;BME280;47810;42.264;23.826;2023-06-14T04:39:18;93565.34;;;15.56;91.61
61870;BME280;47810;42.264;23.826;2023-06-14T04:41:44;93568.75;;;15.58;91.10
61870;BME280;47810;42.264;23.826;2023-06-14T04:44:10;93569.78;;;15.67;91.25
61870;BME280;47810;42.264;23.826;2023-06-14T04:46:36;93568.22;;;15.74;90.72
61870;BME280;47810;42.264;23.826;2023-06-14T04:49:15;93573.84;;;15.81;92.31
61870;BME280;47810;42.264;23.826;2023-06-14T04:51:41;93579.19;;;16.00;92.18
61870;BME280;47810;42.264;23.826;2023-06-14T04:54:08;93578.34;;;16.00;90.53
61870;BME280;47810;42.264;23.826;2023-06-14T04:56:35;93577.50;;;15.99;89.64
61870;BME280;47810;42.264;23.826;2023-06-14T04:59:02;93573.28;;;16.06;90.25
61870;BME280;47810;42.264;23.826;2023-06-14T05:01:30;93582.84;;;16.19;90.97
61870;BME280;47810;42.264;23.826;2023-06-14T05:03:57;93582.28;;;16.35;89.78
61870;BME280;47810;42.264;23.826;2023-06-14T05:06:23;93583.13;;;16.16;90.83
61870;BME280;47810;42.264;23.826;2023-06-14T05:08:49;93587.03;;;16.41;91.24
61870;BME280;47810;42.264;23.826;2023-06-14T05:11:15;93594.88;;;16.42;89.43
61870;BME280;47810;42.264;23.826;2023-06-14T05:13:42;93587.31;;;16.18;91.81
61870;BME280;47810;42.264;23.826;2023-06-14T05:16:08;93590.41;;;16.14;92.77
61870;BME280;47810;42.264;23.826;2023-06-14T05:18:34;93594.03;;;16.32;92.68
61870;BME280;47810;42.264;23.826;2023-06-14T05:21:01;93589.81;;;16.39;92.31
61870;BME280;47810;42.264;23.826;2023-06-14T05:23:27;93594.47;;;16.47;91.61
61870;BME280;47810;42.264;23.826;2023-06-14T05:25:52;93594.44;;;16.57;91.20
61870;BME280;47810;42.264;23.826;2023-06-14T05:28:18;93595.66;;;16.72;91.17
61870;BME280;47810;42.264;23.826;2023-06-14T05:30:45;93598.75;;;16.87;90.58
61870;BME280;47810;42.264;23.826;2023-06-14T05:33:10;93597.34;;;16.92;89.41
61870;BME280;47810;42.264;23.826;2023-06-14T05:35:36;93591.44;;;16.98;89.60
61870;BME280;47810;42.264;23.826;2023-06-14T05:38:03;93593.31;;;17.16;89.50
61870;BME280;47810;42.264;23.826;2023-06-14T05:40:28;93589.50;;;17.28;88.31
61870;BME280;47810;42.264;23.826;2023-06-14T05:42:54;93588.78;;;17.26;87.82
61870;BME280;47810;42.264;23.826;2023-06-14T05:45:20;93591.38;;;17.18;87.54
61870;BME280;47810;42.264;23.826;2023-06-14T05:47:48;93592.72;;;17.32;87.57
61870;BME280;47810;42.264;23.826;2023-06-14T05:50:14;93593.16;;;17.27;87.99
61870;BME280;47810;42.264;23.826;2023-06-14T05:52:39;93590.69;;;17.43;88.11
61870;BME280;47810;42.264;23.826;2023-06-14T05:55:05;93596.53;;;17.57;87.94
61870;BME280;47810;42.264;23.826;2023-06-14T05:57:31;93586.13;;;17.54;87.12
61870;BME280;47810;42.264;23.826;2023-06-14T05:59:56;93587.88;;;17.73;87.73
61870;BME280;47810;42.264;23.826;2023-06-14T06:02:23;93593.34;;;17.71;86.54
61870;BME280;47810;42.264;23.826;2023-06-14T06:04:49;93589.59;;;17.64;86.49
61870;BME280;47810;42.264;23.826;2023-06-14T06:07:15;93591.66;;;17.70;85.34
61870;BME280;47810;42.264;23.826;2023-06-14T06:09:40;93593.34;;;17.71;85.25
61870;BME280;47810;42.264;23.826;2023-06-14T06:12:06;93595.84;;;17.82;85.32
61870;BME280;47810;42.264;23.826;2023-06-14T06:14:33;93593.19;;;18.00;83.75
61870;BME280;47810;42.264;23.826;2023-06-14T06:17:00;93594.25;;;17.89;84.32
61870;BME280;47810;42.264;23.826;2023-06-14T06:19:25;93596.91;;;17.89;83.88
61870;BME280;47810;42.264;23.826;2023-06-14T06:21:51;93587.06;;;17.90;84.29
61870;BME280;47810;42.264;23.826;2023-06-14T06:24:16;93590.16;;;17.95;84.02
61870;BME280;47810;42.264;23.826;2023-06-14T06:26:42;93598.16;;;18.13;85.06
61870;BME280;47810;42.264;23.826;2023-06-14T06:29:07;93598.44;;;18.46;84.50
61870;BME280;47810;42.264;23.826;2023-06-14T06:31:34;93610.97;;;18.63;83.55
61870;BME280;47810;42.264;23.826;2023-06-14T06:34:00;93606.53;;;18.90;81.87
61870;BME280;47810;42.264;23.826;2023-06-14T06:36:25;93605.59;;;18.99;80.55
61870;BME280;47810;42.264;23.826;2023-06-14T06:38:51;93608.53;;;19.14;78.51
61870;BME280;47810;42.264;23.826;2023-06-14T06:41:16;93605.56;;;19.25;79.20
61870;BME280;47810;42.264;23.826;2023-06-14T06:43:42;93614.53;;;19.42;79.25
61870;BME280;47810;42.264;23.826;2023-06-14T06:46:07;93617.41;;;19.48;77.32
61870;BME280;47810;42.264;23.826;2023-06-14T06:48:34;93614.00;;;19.38;76.32
61870;BME280;47810;42.264;23.826;2023-06-14T06:50:59;93619.94;;;19.50;76.41
61870;BME280;47810;42.264;23.826;2023-06-14T06:53:25;93613.88;;;19.40;75.97
61870;BME280;47810;42.264;23.826;2023-06-14T06:55:52;93618.78;;;19.52;78.35
61870;BME280;47810;42.264;23.826;2023-06-14T06:58:17;93625.97;;;19.52;79.00
61870;BME280;47810;42.264;23.826;2023-06-14T07:00:43;93610.16;;;19.67;79.81
61870;BME280;47810;42.264;23.826;2023-06-14T07:03:08;93606.25;;;19.61;78.84
61870;BME280;47810;42.264;23.826;2023-06-14T07:05:34;93616.56;;;19.48;78.07
61870;BME280;47810;42.264;23.826;2023-06-14T07:08:00;93617.91;;;19.44;77.97
61870;BME280;47810;42.264;23.826;2023-06-14T07:10:25;93617.00;;;19.35;78.26
61870;BME280;47810;42.264;23.826;2023-06-14T07:12:51;93625.66;;;19.29;78.15
61870;BME280;47810;42.264;23.826;2023-06-14T07:15:16;93625.09;;;19.43;79.23
61870;BME280;47810;42.264;23.826;2023-06-14T07:17:42;93631.34;;;19.60;76.24
61870;BME280;47810;42.264;23.826;2023-06-14T07:20:08;93634.34;;;19.57;77.58
61870;BME280;47810;42.264;23.826;2023-06-14T07:22:43;93635.47;;;19.72;75.85
61870;BME280;47810;42.264;23.826;2023-06-14T07:25:09;93627.25;;;19.74;76.10
61870;BME280;47810;42.264;23.826;2023-06-14T07:27:34;93629.63;;;19.51;76.71
61870;BME280;47810;42.264;23.826;2023-06-14T07:30:00;93624.03;;;19.62;77.47
61870;BME280;47810;42.264;23.826;2023-06-14T07:32:25;93624.75;;;19.72;75.05
61870;BME280;47810;42.264;23.826;2023-06-14T07:34:51;93625.97;;;19.86;74.85
61870;BME280;47810;42.264;23.826;2023-06-14T07:37:16;93632.50;;;19.84;75.64
61870;BME280;47810;42.264;23.826;2023-06-14T07:39:51;93627.69;;;19.87;76.04
61870;BME280;47810;42.264;23.826;2023-06-14T07:42:16;93632.91;;;19.97;74.43
61870;BME280;47810;42.264;23.826;2023-06-14T07:44:43;93624.44;;;19.84;75.32
61870;BME280;47810;42.264;23.826;2023-06-14T07:47:08;93624.69;;;19.98;74.55
61870;BME280;47810;42.264;23.826;2023-06-14T07:49:34;93623.78;;;19.82;74.84
61870;BME280;47810;42.264;23.826;2023-06-14T07:52:00;93633.22;;;20.02;74.91
61870;BME280;47810;42.264;23.826;2023-06-14T07:54:25;93635.78;;;20.12;73.68
61870;BME280;47810;42.264;23.826;2023-06-14T07:56:51;93634.66;;;20.31;71.68
61870;BME280;47810;42.264;23.826;2023-06-14T07:59:17;93642.34;;;20.25;72.67
61870;BME280;47810;42.264;23.826;2023-06-14T08:01:42;93641.03;;;20.38;73.17
61870;BME280;47810;42.264;23.826;2023-06-14T08:04:12;93640.75;;;20.57;73.98
61870;BME280;47810;42.264;23.826;2023-06-14T08:06:38;93642.41;;;20.50;73.52
61870;BME280;47810;42.264;23.826;2023-06-14T08:09:04;93647.66;;;20.68;74.81
61870;BME280;47810;42.264;23.826;2023-06-14T08:11:30;93648.16;;;21.04;74.63
61870;BME280;47810;42.264;23.826;2023-06-14T08:13:56;93650.84;;;21.45;73.47
61870;BME280;47810;42.264;23.826;2023-06-14T08:16:22;93648.53;;;21.90;69.48
61870;BME280;47810;42.264;23.826;2023-06-14T08:18:48;93647.69;;;22.28;71.02
61870;BME280;47810;42.264;23.826;2023-06-14T08:21:13;93649.63;;;22.43;68.18
61870;BME280;47810;42.264;23.826;2023-06-14T08:23:40;93646.28;;;22.41;65.98
61870;BME280;47810;42.264;23.826;2023-06-14T08:26:08;93651.81;;;22.47;67.16
61870;BME280;47810;42.264;23.826;2023-06-14T08:28:33;93654.03;;;22.67;66.74
61870;BME280;47810;42.264;23.826;2023-06-14T08:30:59;93648.81;;;22.88;63.09
61870;BME280;47810;42.264;23.826;2023-06-14T08:33:25;93647.28;;;23.17;65.23
61870;BME280;47810;42.264;23.826;2023-06-14T08:35:51;93642.25;;;23.52;64.70
61870;BME280;47810;42.264;23.826;2023-06-14T08:38:16;93637.38;;;23.70;62.49
61870;BME280;47810;42.264;23.826;2023-06-14T08:40:42;93638.94;;;23.79;64.44
61870;BME280;47810;42.264;23.826;2023-06-14T08:43:08;93644.59;;;23.84;62.93
61870;BME280;47810;42.264;23.826;2023-06-14T08:45:33;93640.78;;;23.79;61.26
61870;BME280;47810;42.264;23.826;2023-06-14T08:47:59;93634.72;;;23.62;60.03
61870;BME280;47810;42.264;23.826;2023-06-14T08:50:25;93643.91;;;23.53;59.98
61870;BME280;47810;42.264;23.826;2023-06-14T08:52:53;93640.06;;;24.14;62.67
61870;BME280;47810;42.264;23.826;2023-06-14T08:55:19;93630.28;;;24.64;59.63
61870;BME280;47810;42.264;23.826;2023-06-14T08:57:46;93646.84;;;24.98;57.86
61870;BME280;47810;42.264;23.826;2023-06-14T09:00:12;93638.28;;;25.16;58.01
61870;BME280;47810;42.264;23.826;2023-06-14T09:02:39;93628.81;;;24.83;56.83
61870;BME280;47810;42.264;23.826;2023-06-14T09:05:11;93639.13;;;25.16;58.07
61870;BME280;47810;42.264;23.826;2023-06-14T09:07:41;93634.22;;;25.26;56.21
61870;BME280;47810;42.264;23.826;2023-06-14T09:12:35;93640.06;;;25.08;57.19
61870;BME280;47810;42.264;23.826;2023-06-14T09:15:04;93642.25;;;24.98;56.97
61870;BME280;47810;42.264;23.826;2023-06-14T09:17:34;93636.41;;;24.95;57.34
61870;BME280;47810;42.264;23.826;2023-06-14T09:20:03;93630.94;;;24.88;56.39
61870;BME280;47810;42.264;23.826;2023-06-14T09:22:35;93630.75;;;25.11;56.54
61870;BME280;47810;42.264;23.826;2023-06-14T09:25:03;93633.00;;;25.29;53.92
61870;BME280;47810;42.264;23.826;2023-06-14T09:27:30;93629.78;;;25.40;57.45
61870;BME280;47810;42.264;23.826;2023-06-14T09:29:55;93624.81;;;25.44;55.33
61870;BME280;47810;42.264;23.826;2023-06-14T09:32:21;93624.59;;;25.73;55.32
61870;BME280;47810;42.264;23.826;2023-06-14T09:34:47;93623.31;;;25.97;56.20
61870;BME280;47810;42.264;23.826;2023-06-14T09:37:13;93613.53;;;25.96;54.29
61870;BME280;47810;42.264;23.826;2023-06-14T09:39:51;93619.47;;;26.13;53.59
61870;BME280;47810;42.264;23.826;2023-06-14T09:42:17;93617.38;;;26.15;55.77
61870;BME280;47810;42.264;23.826;2023-06-14T09:44:47;93614.13;;;25.92;54.42
61870;BME280;47810;42.264;23.826;2023-06-14T09:47:14;93609.25;;;25.81;53.53
61870;BME280;47810;42.264;23.826;2023-06-14T09:49:40;93607.50;;;25.66;53.56
61870;BME280;47810;42.264;23.826;2023-06-14T09:52:06;93607.84;;;25.85;56.24
61870;BME280;47810;42.264;23.826;2023-06-14T09:54:36;93606.84;;;25.92;53.79
61870;BME280;47810;42.264;23.826;2023-06-14T09:57:06;93609.06;;;26.17;54.70
61870;BME280;47810;42.264;23.826;2023-06-14T09:59:33;93601.03;;;26.43;53.75
61870;BME280;47810;42.264;23.826;2023-06-14T10:02:00;93603.31;;;26.40;53.24
61870;BME280;47810;42.264;23.826;2023-06-14T10:04:31;93606.75;;;26.55;55.02
61870;BME280;47810;42.264;23.826;2023-06-14T10:06:58;93599.09;;;26.79;53.57
61870;BME280;47810;42.264;23.826;2023-06-14T10:09:25;93597.22;;;26.99;52.42
61870;BME280;47810;42.264;23.826;2023-06-14T10:11:51;93595.16;;;27.01;51.90
61870;BME280;47810;42.264;23.826;2023-06-14T10:14:16;93598.97;;;27.27;52.48
61870;BME280;47810;42.264;23.826;2023-06-14T10:21:57;93602.44;;;26.81;52.04
61870;BME280;47810;42.264;23.826;2023-06-14T10:24:26;93595.00;;;27.16;51.88
61870;BME280;47810;42.264;23.826;2023-06-14T10:26:56;93591.84;;;27.52;51.29
61870;BME280;47810;42.264;23.826;2023-06-14T10:29:22;93588.88;;;28.00;48.42
61870;BME280;47810;42.264;23.826;2023-06-14T10:31:50;93584.03;;;28.16;47.18
61870;BME280;47810;42.264;23.826;2023-06-14T10:34:30;93578.81;;;28.07;46.56
61870;BME280;47810;42.264;23.826;2023-06-14T10:39:51;93582.69;;;27.47;48.82
61870;BME280;47810;42.264;23.826;2023-06-14T10:42:16;93588.50;;;27.77;46.94
61870;BME280;47810;42.264;23.826;2023-06-14T10:44:55;93589.22;;;28.24;48.61
61870;BME280;47810;42.264;23.826;2023-06-14T10:47:23;93587.91;;;28.46;46.31
61870;BME280;47810;42.264;23.826;2023-06-14T10:52:27;93587.59;;;29.06;46.85
61870;BME280;47810;42.264;23.826;2023-06-14T10:55:09;93588.38;;;28.75;47.32
61870;BME280;47810;42.264;23.826;2023-06-14T11:00:12;93587.66;;;27.83;46.62
61870;BME280;47810;42.264;23.826;2023-06-14T11:05:07;93575.19;;;27.29;49.35
61870;BME280;47810;42.264;23.826;2023-06-14T11:10:06;93573.34;;;28.21;47.77
61870;BME280;47810;42.264;23.826;2023-06-14T11:12:35;93570.97;;;28.44;48.01
61870;BME280;47810;42.264;23.826;2023-06-14T11:15:02;93569.19;;;28.63;48.14
61870;BME280;47810;42.264;23.826;2023-06-14T11:17:28;93563.72;;;28.25;47.04
61870;BME280;47810;42.264;23.826;2023-06-14T11:20:11;93570.09;;;27.92;48.41
61870;BME280;47810;42.264;23.826;2023-06-14T11:22:41;93574.31;;;27.08;47.83
61870;BME280;47810;42.264;23.826;2023-06-14T11:25:11;93580.94;;;26.73;50.60
61870;BME280;47810;42.264;23.826;2023-06-14T11:27:37;93573.63;;;26.66;50.94
61870;BME280;47810;42.264;23.826;2023-06-14T11:30:03;93568.84;;;26.55;50.88
61870;BME280;47810;42.264;23.826;2023-06-14T11:32:33;93568.44;;;26.58;51.77
61870;BME280;47810;42.264;23.826;2023-06-14T11:34:59;93574.44;;;26.60;51.96
61870;BME280;47810;42.264;23.826;2023-06-14T11:37:25;93566.34;;;26.74;50.66
61870;BME280;47810;42.264;23.826;2023-06-14T11:39:57;93568.22;;;26.73;51.39
61870;BME280;47810;42.264;23.826;2023-06-14T11:42:23;93564.69;;;26.73;51.16
61870;BME280;47810;42.264;23.826;2023-06-14T11:44:49;93557.22;;;27.01;47.58
61870;BME280;47810;42.264;23.826;2023-06-14T11:47:15;93562.63;;;26.75;48.88
61870;BME280;47810;42.264;23.826;2023-06-14T11:49:40;93558.78;;;26.42;50.92
61870;BME280;47810;42.264;23.826;2023-06-14T11:52:07;93559.59;;;26.36;50.06
61870;BME280;47810;42.264;23.826;2023-06-14T11:54:33;93551.63;;;26.28;50.92
61870;BME280;47810;42.264;23.826;2023-06-14T11:56:59;93546.66;;;26.45;49.87
61870;BME280;47810;42.264;23.826;2023-06-14T11:59:25;93529.19;;;26.41;51.16
61870;BME280;47810;42.264;23.826;2023-06-14T12:01:52;93526.19;;;26.22;50.34
61870;BME280;47810;42.264;23.826;2023-06-14T12:04:29;93528.84;;;26.02;51.04
61870;BME280;47810;42.264;23.826;2023-06-14T12:06:54;93524.56;;;25.80;50.12
61870;BME280;47810;42.264;23.826;2023-06-14T12:09:21;93516.75;;;25.57;51.55
61870;BME280;47810;42.264;23.826;2023-06-14T12:11:51;93522.47;;;25.41;51.95
61870;BME280;47810;42.264;23.826;2023-06-14T12:14:16;93517.91;;;25.41;52.32
61870;BME280;47810;42.264;23.826;2023-06-14T12:16:42;93525.00;;;25.49;53.97
61870;BME280;47810;42.264;23.826;2023-06-14T12:19:08;93529.22;;;25.58;51.52
61870;BME280;47810;42.264;23.826;2023-06-14T12:21:36;93530.13;;;25.65;53.65
61870;BME280;47810;42.264;23.826;2023-06-14T12:24:03;93534.03;;;25.91;52.80
61870;BME280;47810;42.264;23.826;2023-06-14T12:26:29;93529.91;;;26.08;50.94
61870;BME280;47810;42.264;23.826;2023-06-14T12:28:55;93531.63;;;26.29;50.51
61870;BME280;47810;42.264;23.826;2023-06-14T12:31:21;93533.84;;;26.74;52.79
61870;BME280;47810;42.264;23.826;2023-06-14T12:33:47;93527.66;;;27.20;50.65
61870;BME280;47810;42.264;23.826;2023-06-14T12:36:14;93518.41;;;27.47;49.52
61870;BME280;47810;42.264;23.826;2023-06-14T12:38:40;93522.56;;;27.56;46.66
61870;BME280;47810;42.264;23.826;2023-06-14T12:41:06;93510.50;;;27.52;48.73
61870;BME280;47810;42.264;23.826;2023-06-14T12:43:33;93520.09;;;27.48;47.09
61870;BME280;47810;42.264;23.826;2023-06-14T12:46:00;93522.53;;;27.76;47.48
61870;BME280;47810;42.264;23.826;2023-06-14T12:48:26;93518.16;;;27.82;45.63
61870;BME280;47810;42.264;23.826;2023-06-14T12:50:56;93513.34;;;27.91;46.05
61870;BME280;47810;42.264;23.826;2023-06-14T12:53:22;93510.13;;;28.07;45.37
61870;BME280;47810;42.264;23.826;2023-06-14T12:55:48;93497.09;;;27.71;47.43
61870;BME280;47810;42.264;23.826;2023-06-14T12:58:14;93490.09;;;27.36;47.57
61870;BME280;47810;42.264;23.826;2023-06-14T13:00:40;93483.63;;;27.11;49.51
61870;BME280;47810;42.264;23.826;2023-06-14T13:03:05;93483.44;;;26.86;48.55
61870;BME280;47810;42.264;23.826;2023-06-14T13:05:31;93490.44;;;26.47;50.87
61870;BME280;47810;42.264;23.826;2023-06-14T13:07:58;93484.56;;;26.10;51.18
61870;BME280;47810;42.264;23.826;2023-06-14T13:10:24;93482.44;;;25.99;49.64
61870;BME280;47810;42.264;23.826;2023-06-14T13:12:51;93484.56;;;26.10;52.12